Time;durP1;ratioP1;P1;durP2;ratioP2;P2;SDS_P1;SDS_P2;PMS_P1;PMS_P2;Temp;Humidity;BMP_temperature;BMP_pressure;BME280_temperature;BME280_humidity;BME280_pressure;Samples;Min_cycle;Max_cycle;Signal;HPM_P1;HPM_P2
2023/12/07 00:01:50;;;;;;;4.47;4.05;;;18.80;56.40;;;;;;4952626;28;20190;-72
2023/12/07 00:04:16;;;;;;;4.40;4.00;;;18.80;56.40;;;;;;4955631;28;20198;-72
2023/12/07 00:06:42;;;;;;;5.03;4.20;;;18.70;56.30;;;;;;4971513;28;20697;-72
2023/12/07 00:09:07;;;;;;;4.38;3.97;;;18.80;56.40;;;;;;4974391;28;20212;-71
2023/12/07 00:11:33;;;;;;;4.55;4.15;;;18.80;56.40;;;;;;4971553;28;20190;-72
2023/12/07 00:13:59;;;;;;;4.03;3.65;;;18.80;56.40;;;;;;4990729;28;20197;-72
2023/12/07 00:16:25;;;;;;;4.10;3.75;;;18.80;56.40;;;;;;4971454;28;20197;-72
2023/12/07 00:18:50;;;;;;;4.10;3.70;;;18.80;56.40;;;;;;4959120;28;20328;-72
2023/12/07 00:21:16;;;;;;;4.60;4.13;;;18.80;56.30;;;;;;4987767;28;20198;-72
2023/12/07 00:23:42;;;;;;;4.30;3.90;;;18.80;56.40;;;;;;4971823;28;20193;-72
2023/12/07 00:26:07;;;;;;;4.35;3.95;;;18.80;56.30;;;;;;4955549;28;20268;-71
2023/12/07 00:28:33;;;;;;;4.22;3.83;;;18.80;56.40;;;;;;4987367;28;20267;-72
2023/12/07 00:30:59;;;;;;;4.70;4.25;;;18.80;56.20;;;;;;4955248;28;20200;-71
2023/12/07 00:33:24;;;;;;;4.35;3.95;;;18.70;56.20;;;;;;4987572;28;20221;-72
2023/12/07 00:35:50;;;;;;;4.47;3.83;;;18.70;56.30;;;;;;4981677;28;20194;-73
2023/12/07 00:38:16;;;;;;;4.20;3.80;;;18.80;56.30;;;;;;4971138;28;20198;-71
2023/12/07 00:40:43;;;;;;;4.20;3.75;;;18.70;56.20;;;;;;4971531;28;20397;-72
2023/12/07 00:43:08;;;;;;;4.28;3.78;;;18.80;56.40;;;;;;4972364;28;20677;-72
2023/12/07 00:45:34;;;;;;;3.83;3.53;;;18.80;56.40;;;;;;4972824;28;20281;-72
2023/12/07 00:48:00;;;;;;;3.60;3.30;;;18.70;56.30;;;;;;4980722;28;20190;-72
2023/12/07 00:50:26;;;;;;;3.95;3.60;;;18.70;56.20;;;;;;4980860;28;20693;-72
2023/12/07 00:52:52;;;;;;;3.85;3.45;;;18.80;56.40;;;;;;4955145;28;20281;-72
2023/12/07 00:55:17;;;;;;;3.97;3.58;;;18.70;56.30;;;;;;4959007;28;20276;-72
2023/12/07 00:57:43;;;;;;;4.45;3.80;;;18.70;56.20;;;;;;4974546;28;20248;-72
2023/12/07 01:00:10;;;;;;;3.40;3.10;;;18.70;56.30;;;;;;4986294;28;20217;-72
2023/12/07 01:02:36;;;;;;;5.18;3.83;;;18.70;56.20;;;;;;4973931;28;20653;-72
2023/12/07 01:05:02;;;;;;;3.88;3.50;;;18.70;56.20;;;;;;4974886;28;20228;-72
2023/12/07 01:07:27;;;;;;;3.63;3.17;;;18.80;56.30;;;;;;4995473;28;20196;-72
2023/12/07 01:09:53;;;;;;;3.55;3.22;;;18.80;56.20;;;;;;4974714;28;20208;-73
2023/12/07 01:12:19;;;;;;;3.40;3.10;;;18.70;56.20;;;;;;4989808;28;20197;-72
2023/12/07 01:14:45;;;;;;;3.72;3.22;;;18.70;56.10;;;;;;4971619;28;20230;-72
2023/12/07 01:17:11;;;;;;;3.40;3.10;;;18.80;56.20;;;;;;4990289;28;20220;-72
2023/12/07 01:19:37;;;;;;;3.35;3.05;;;18.70;56.10;;;;;;4974300;28;20205;-72
2023/12/07 01:22:03;;;;;;;3.92;3.38;;;18.70;56.20;;;;;;4958718;28;20197;-72
2023/12/07 01:24:29;;;;;;;3.50;3.20;;;18.70;56.10;;;;;;4990508;28;20186;-72
2023/12/07 01:26:55;;;;;;;3.25;2.95;;;18.70;56.10;;;;;;4970418;28;20217;-72
2023/12/07 01:29:21;;;;;;;3.55;3.25;;;18.70;56.10;;;;;;4975825;28;20206;-72
2023/12/07 01:31:46;;;;;;;3.35;3.08;;;18.70;56.20;;;;;;4974196;28;20201;-72
2023/12/07 01:34:12;;;;;;;2.95;2.75;;;18.70;56.10;;;;;;4955220;28;20357;-70
2023/12/07 01:36:38;;;;;;;3.90;3.53;;;18.70;56.10;;;;;;4973098;28;20205;-72
2023/12/07 01:39:05;;;;;;;3.50;3.20;;;18.70;56.20;;;;;;4954009;28;20214;-72
2023/12/07 01:41:31;;;;;;;3.50;3.20;;;18.70;56.20;;;;;;4957550;28;20184;-71
2023/12/07 01:43:57;;;;;;;3.78;3.33;;;18.70;56.20;;;;;;4975845;28;20202;-72
2023/12/07 01:46:23;;;;;;;3.03;2.72;;;18.70;56.10;;;;;;4973945;28;20212;-72
2023/12/07 01:48:49;;;;;;;3.13;2.83;;;18.80;56.20;;;;;;4957806;28;20292;-72
2023/12/07 01:51:16;;;;;;;3.70;3.40;;;18.80;56.30;;;;;;4990173;28;20177;-72
2023/12/07 01:53:43;;;;;;;3.03;2.80;;;18.70;56.10;;;;;;4973487;28;20186;-73
2023/12/07 01:56:10;;;;;;;3.22;2.92;;;18.70;56.10;;;;;;4986240;28;20191;-71
2023/12/07 01:58:37;;;;;;;3.30;3.00;;;18.70;56.00;;;;;;4973908;28;20241;-72
2023/12/07 02:01:03;;;;;;;3.10;2.80;;;18.70;56.10;;;;;;4975422;28;20208;-71
2023/12/07 02:03:31;;;;;;;3.20;3.00;;;18.70;56.10;;;;;;4989590;28;20214;-72
2023/12/07 02:05:58;;;;;;;2.95;2.75;;;18.70;56.10;;;;;;4979566;28;20621;-72
2023/12/07 02:08:24;;;;;;;2.92;2.70;;;18.70;56.10;;;;;;4989683;28;20240;-72
2023/12/07 02:10:52;;;;;;;3.30;3.00;;;18.70;56.10;;;;;;4974996;28;20276;-72
2023/12/07 02:13:20;;;;;;;3.22;2.70;;;18.70;56.00;;;;;;4957356;28;20186;-71
2023/12/07 02:15:46;;;;;;;2.80;2.60;;;18.70;56.00;;;;;;4989875;28;20204;-71
2023/12/07 02:18:32;;;;;;;3.08;2.83;;;18.70;56.10;;;;;;4974995;28;20197;-72
2023/12/07 02:21:22;;;;;;;3.40;2.33;;;18.70;56.00;;;;;;4973433;28;20189;-72
2023/12/07 02:23:53;;;;;;;2.42;2.30;;;18.70;56.10;;;;;;4968067;28;20189;-72
2023/12/07 02:26:22;;;;;;;2.97;2.67;;;18.70;56.00;;;;;;4973350;28;20220;-72
2023/12/07 02:28:48;;;;;;;3.00;2.67;;;18.70;56.00;;;;;;4966444;28;20249;-71
2023/12/07 02:31:13;;;;;;;2.72;2.53;;;18.70;56.00;;;;;;4954040;28;20670;-72
2023/12/07 02:33:39;;;;;;;2.38;2.17;;;18.70;55.90;;;;;;4989397;28;20197;-72
2023/12/07 02:36:05;;;;;;;2.70;2.50;;;18.70;55.90;;;;;;4973227;28;20252;-72
2023/12/07 02:38:33;;;;;;;2.72;2.53;;;18.70;56.00;;;;;;4973066;28;20185;-72
2023/12/07 02:41:00;;;;;;;2.83;2.63;;;18.70;56.00;;;;;;4974281;28;20192;-72
2023/12/07 02:43:27;;;;;;;2.50;2.30;;;18.70;55.90;;;;;;4987453;28;20194;-71
2023/12/07 02:45:53;;;;;;;2.58;2.38;;;18.70;55.90;;;;;;4972944;28;20211;-72
2023/12/07 02:48:21;;;;;;;2.50;2.30;;;18.70;56.00;;;;;;4973556;28;20186;-71
2023/12/07 02:50:47;;;;;;;2.80;2.60;;;18.70;55.90;;;;;;4978915;28;20194;-72
2023/12/07 02:53:13;;;;;;;2.63;2.42;;;18.70;55.90;;;;;;4985712;28;20612;-72
2023/12/07 02:55:38;;;;;;;2.83;2.63;;;18.70;55.90;;;;;;4965556;28;20197;-72
2023/12/07 02:58:04;;;;;;;2.28;2.08;;;18.70;55.90;;;;;;4978248;28;20200;-71
2023/12/07 03:00:30;;;;;;;2.65;2.45;;;18.70;55.90;;;;;;4997939;28;20688;-72
2023/12/07 03:02:56;;;;;;;2.78;2.58;;;18.70;56.00;;;;;;4972878;28;20209;-71
2023/12/07 03:05:22;;;;;;;4.07;3.65;;;18.70;55.90;;;;;;4988811;28;20209;-72
2023/12/07 03:07:48;;;;;;;4.50;3.92;;;18.70;55.90;;;;;;4979591;28;20192;-72
2023/12/07 03:10:14;;;;;;;3.85;3.45;;;18.70;55.90;;;;;;4986577;28;20207;-72
2023/12/07 03:12:40;;;;;;;3.45;3.15;;;18.70;55.90;;;;;;4956356;28;20197;-72
2023/12/07 03:15:06;;;;;;;3.13;2.83;;;18.70;55.90;;;;;;4988867;28;20282;-72
2023/12/07 03:17:32;;;;;;;3.40;3.10;;;18.70;55.90;;;;;;4954976;28;20222;-72
2023/12/07 03:19:58;;;;;;;3.38;3.08;;;18.70;55.90;;;;;;4981558;28;20224;-72
2023/12/07 03:22:24;;;;;;;3.83;3.47;;;18.70;55.90;;;;;;4949168;28;20210;-73
2023/12/07 03:24:52;;;;;;;3.53;3.10;;;18.60;55.80;;;;;;4986977;28;20193;-72
2023/12/07 03:27:19;;;;;;;3.17;2.90;;;18.70;55.90;;;;;;4973572;28;20196;-72
2023/12/07 03:29:45;;;;;;;3.30;3.00;;;18.70;55.80;;;;;;4988095;28;20218;-72
2023/12/07 03:32:11;;;;;;;3.42;3.13;;;18.70;55.80;;;;;;4969893;28;20190;-71
2023/12/07 03:34:36;;;;;;;3.53;3.22;;;18.70;55.80;;;;;;4988353;28;20649;-72
2023/12/07 03:37:03;;;;;;;2.85;2.65;;;18.70;55.80;;;;;;4968996;28;20666;-71
2023/12/07 03:39:29;;;;;;;2.60;2.40;;;18.70;55.80;;;;;;4948698;28;20210;-71
2023/12/07 03:41:55;;;;;;;3.33;3.03;;;18.60;55.80;;;;;;4970408;28;20220;-72
2023/12/07 03:44:21;;;;;;;3.47;2.72;;;18.70;55.80;;;;;;4969251;28;20185;-72
2023/12/07 03:46:46;;;;;;;2.97;2.78;;;18.60;55.70;;;;;;4977279;28;20214;-72
2023/12/07 03:49:12;;;;;;;3.70;2.90;;;18.60;55.60;;;;;;4943736;28;20704;-72
2023/12/07 03:51:38;;;;;;;3.08;2.88;;;18.70;55.70;;;;;;4963983;28;20186;-71
2023/12/07 03:54:05;;;;;;;2.90;2.70;;;18.70;55.70;;;;;;4987578;28;20193;-72
2023/12/07 03:56:33;;;;;;;2.97;2.67;;;18.60;55.60;;;;;;4987804;28;20563;-72
2023/12/07 03:58:58;;;;;;;3.10;2.78;;;18.60;55.50;;;;;;4968323;28;20210;-72
2023/12/07 04:01:27;;;;;;;3.03;2.72;;;18.70;55.70;;;;;;4982348;28;20205;-72
2023/12/07 04:03:55;;;;;;;3.20;2.90;;;18.70;56.30;;;;;;4959837;28;20241;-72
2023/12/07 04:06:24;;;;;;;2.90;2.70;;;18.60;55.60;;;;;;4973027;28;20224;-72
2023/12/07 04:08:50;;;;;;;2.67;2.42;;;18.60;55.60;;;;;;4980212;28;20214;-72
2023/12/07 04:11:16;;;;;;;2.72;2.53;;;18.60;55.50;;;;;;4968682;28;20244;-72
2023/12/07 04:13:43;;;;;;;2.50;2.30;;;18.60;55.60;;;;;;4971079;28;20245;-72
2023/12/07 04:16:10;;;;;;;2.35;2.15;;;18.60;55.50;;;;;;4971517;28;20200;-72
2023/12/07 04:18:36;;;;;;;2.63;2.42;;;18.60;55.50;;;;;;4971436;28;20243;-72
2023/12/07 04:21:02;;;;;;;2.80;2.60;;;18.60;55.40;;;;;;4971549;28;20200;-72
2023/12/07 04:23:28;;;;;;;2.58;2.38;;;18.60;55.50;;;;;;4987895;28;20231;-72
2023/12/07 04:25:54;;;;;;;2.88;2.67;;;18.60;55.40;;;;;;4975697;28;20248;-72
2023/12/07 04:28:20;;;;;;;2.70;2.50;;;18.60;55.40;;;;;;4975361;28;20189;-71
2023/12/07 04:30:46;;;;;;;2.67;2.47;;;18.60;55.40;;;;;;4959363;28;20200;-73
2023/12/07 04:33:11;;;;;;;2.72;2.53;;;18.60;55.40;;;;;;4975438;28;20185;-72
2023/12/07 04:35:37;;;;;;;2.70;2.50;;;18.60;55.40;;;;;;4991513;28;20212;-72
2023/12/07 04:38:03;;;;;;;2.50;2.30;;;18.60;55.40;;;;;;4975687;28;20190;-73
2023/12/07 04:40:28;;;;;;;2.72;2.53;;;18.60;55.40;;;;;;4975736;28;20213;-72
2023/12/07 04:42:54;;;;;;;2.33;2.20;;;18.60;55.30;;;;;;4975431;28;20201;-73
2023/12/07 04:45:20;;;;;;;2.55;2.35;;;18.60;55.30;;;;;;4959579;28;20221;-73
2023/12/07 04:47:46;;;;;;;2.60;2.40;;;18.60;55.20;;;;;;4991052;28;20344;-72
2023/12/07 04:50:12;;;;;;;2.60;2.40;;;18.60;55.20;;;;;;4972777;28;20209;-72
2023/12/07 04:52:38;;;;;;;2.75;2.45;;;18.60;55.30;;;;;;4975044;28;20205;-73
2023/12/07 04:55:08;;;;;;;2.20;2.00;;;18.60;55.20;;;;;;4974660;28;20193;-72
2023/12/07 04:57:35;;;;;;;2.53;2.33;;;18.60;55.20;;;;;;4998644;28;20192;-71
2023/12/07 05:00:09;;;;;;;2.83;2.40;;;18.60;55.10;;;;;;4976546;28;20205;-73
2023/12/07 05:02:36;;;;;;;2.60;2.40;;;18.60;55.20;;;;;;4982181;28;20185;-72
2023/12/07 05:05:02;;;;;;;2.20;2.00;;;18.60;55.10;;;;;;4975134;28;20186;-72
2023/12/07 05:07:27;;;;;;;2.33;2.13;;;18.60;55.10;;;;;;4991517;28;20281;-72
2023/12/07 05:09:53;;;;;;;3.15;2.13;;;18.50;55.00;;;;;;4973418;28;20265;-72
2023/12/07 05:12:19;;;;;;;2.10;1.90;;;18.60;55.00;;;;;;4981855;28;20246;-72
2023/12/07 05:14:45;;;;;;;2.47;2.25;;;18.60;54.90;;;;;;4959129;28;20245;-72
2023/12/07 05:17:10;;;;;;;2.53;2.33;;;18.60;55.00;;;;;;4975010;28;20186;-72
2023/12/07 05:19:36;;;;;;;1.98;1.88;;;18.50;54.80;;;;;;4965545;28;20209;-71
2023/12/07 05:22:02;;;;;;;2.40;2.20;;;18.60;54.90;;;;;;4975430;28;20194;-72
2023/12/07 05:24:28;;;;;;;2.20;2.00;;;18.50;54.80;;;;;;4974860;28;20265;-72
2023/12/07 05:26:54;;;;;;;2.40;2.20;;;18.60;54.90;;;;;;4983614;28;20205;-71
2023/12/07 05:29:19;;;;;;;2.42;2.22;;;18.60;54.90;;;;;;4981148;28;20718;-72
2023/12/07 05:31:48;;;;;;;2.10;2.00;;;18.60;54.90;;;;;;4990950;28;20206;-72
2023/12/07 05:34:14;;;;;;;2.38;2.17;;;18.50;54.80;;;;;;4980560;28;20236;-71
2023/12/07 05:36:40;;;;;;;2.22;2.10;;;18.50;54.80;;;;;;4990897;28;20193;-73
2023/12/07 05:39:07;;;;;;;2.42;2.22;;;18.50;54.80;;;;;;4990057;28;20206;-71
2023/12/07 05:41:33;;;;;;;2.17;2.00;;;18.50;54.80;;;;;;4974491;28;20274;-72
2023/12/07 05:43:58;;;;;;;2.00;1.90;;;18.50;54.80;;;;;;4974585;28;20190;-72
2023/12/07 05:46:24;;;;;;;2.25;2.05;;;18.50;54.80;;;;;;4990321;28;20213;-73
2023/12/07 05:48:50;;;;;;;2.20;2.00;;;18.50;55.00;;;;;;4973966;28;20213;-72
2023/12/07 05:51:17;;;;;;;2.50;2.30;;;18.50;54.80;;;;;;4970880;28;20205;-72
2023/12/07 05:53:44;;;;;;;2.20;2.00;;;18.50;54.80;;;;;;4989989;28;20189;-72
2023/12/07 05:56:11;;;;;;;2.13;1.95;;;18.50;54.80;;;;;;4974299;28;20678;-72
2023/12/07 05:58:37;;;;;;;2.03;1.83;;;18.50;54.80;;;;;;4980449;28;20301;-71
2023/12/07 06:01:03;;;;;;;2.28;1.90;;;18.50;54.80;;;;;;4973985;28;20332;-71
2023/12/07 06:03:29;;;;;;;2.28;2.08;;;18.50;54.60;;;;;;4990158;28;20189;-71
2023/12/07 06:05:55;;;;;;;2.10;1.90;;;18.50;54.70;;;;;;4959390;28;20213;-70
2023/12/07 06:08:22;;;;;;;2.00;1.90;;;18.50;54.60;;;;;;4989677;28;20178;-71
2023/12/07 06:10:48;;;;;;;2.50;2.30;;;18.40;54.50;;;;;;4973517;28;20181;-71
2023/12/07 06:13:14;;;;;;;1.80;1.70;;;18.50;54.50;;;;;;4975117;28;20218;-72
2023/12/07 06:15:40;;;;;;;2.00;1.90;;;18.50;54.50;;;;;;4973817;28;20193;-71
2023/12/07 06:18:06;;;;;;;2.10;2.00;;;18.50;54.50;;;;;;4973497;28;20201;-71
2023/12/07 06:20:33;;;;;;;1.80;1.70;;;18.50;54.50;;;;;;4979955;28;20224;-69
2023/12/07 06:22:59;;;;;;;1.90;1.80;;;18.50;54.50;;;;;;4976884;28;20176;-71
2023/12/07 06:25:25;;;;;;;2.20;2.00;;;18.50;54.50;;;;;;4976443;28;20304;-70
2023/12/07 06:27:51;;;;;;;2.00;1.90;;;18.50;54.40;;;;;;4969861;28;20190;-71
2023/12/07 06:30:17;;;;;;;1.80;1.70;;;18.50;54.50;;;;;;4986057;28;20293;-71
2023/12/07 06:32:43;;;;;;;2.58;1.80;;;18.50;54.40;;;;;;4975166;28;20649;-70
2023/12/07 06:35:12;;;;;;;2.25;2.05;;;18.50;54.40;;;;;;4994393;28;20620;-70
2023/12/07 06:37:39;;;;;;;2.28;2.03;;;18.40;54.30;;;;;;4988830;28;20186;-69
2023/12/07 06:40:09;;;;;;;2.10;1.90;;;18.50;54.40;;;;;;4972809;28;20304;-70
2023/12/07 06:42:35;;;;;;;2.20;2.05;;;18.50;54.20;;;;;;4974267;28;20228;-70
2023/12/07 06:45:02;;;;;;;2.10;1.83;;;18.40;54.30;;;;;;4962818;28;20185;-70
2023/12/07 06:47:28;;;;;;;2.38;2.17;;;18.40;54.10;;;;;;4988138;28;20198;-70
2023/12/07 06:49:55;;;;;;;2.17;1.98;;;18.40;54.30;;;;;;4979998;28;20209;-70
2023/12/07 06:52:21;;;;;;;2.38;2.17;;;18.40;54.20;;;;;;4972847;28;20653;-70
2023/12/07 06:54:47;;;;;;;2.30;2.10;;;18.40;54.10;;;;;;4987102;28;20185;-70
2023/12/07 06:57:13;;;;;;;2.25;1.98;;;18.40;54.20;;;;;;4972800;28;20181;-70
2023/12/07 06:59:40;;;;;;;2.28;2.17;;;18.40;54.20;;;;;;4972696;28;20253;-71
2023/12/07 07:02:06;;;;;;;2.25;2.05;;;18.40;54.10;;;;;;4986893;28;20186;-71
2023/12/07 07:04:32;;;;;;;1.92;1.80;;;18.40;54.10;;;;;;4989110;28;20193;-71
2023/12/07 07:06:58;;;;;;;1.90;1.80;;;18.40;54.10;;;;;;4972779;28;20246;-70
2023/12/07 07:09:24;;;;;;;2.30;2.10;;;18.40;54.10;;;;;;4991775;28;20214;-70
2023/12/07 07:11:50;;;;;;;2.28;2.15;;;18.40;54.10;;;;;;4974049;28;20186;-71
2023/12/07 07:14:17;;;;;;;2.17;1.98;;;18.40;54.00;;;;;;4972944;28;20273;-71
2023/12/07 07:16:43;;;;;;;1.77;1.67;;;18.40;54.10;;;;;;4972384;28;20185;-70
2023/12/07 07:19:08;;;;;;;2.13;1.92;;;18.40;54.00;;;;;;4988525;28;20275;-71
2023/12/07 07:21:34;;;;;;;2.35;2.17;;;18.40;53.90;;;;;;4974822;28;20193;-70
2023/12/07 07:24:00;;;;;;;2.40;1.98;;;18.40;54.00;;;;;;4972841;28;20189;-70
2023/12/07 07:26:26;;;;;;;2.08;1.92;;;18.40;53.80;;;;;;4997300;28;20214;-71
2023/12/07 07:28:52;;;;;;;2.17;2.00;;;18.40;53.80;;;;;;4970873;28;20206;-70
2023/12/07 07:31:19;;;;;;;2.00;1.90;;;18.40;53.80;;;;;;4981363;28;20657;-70
2023/12/07 07:33:47;;;;;;;2.17;2.05;;;18.40;53.80;;;;;;4972251;28;20220;-70
2023/12/07 07:36:15;;;;;;;2.20;1.92;;;18.40;53.90;;;;;;4988248;28;20186;-70
2023/12/07 07:38:48;;;;;;;2.30;2.10;;;18.40;53.70;;;;;;4971748;28;20705;-71
2023/12/07 07:41:14;;;;;;;2.80;2.20;;;18.40;53.70;;;;;;4965138;28;20189;-70
2023/12/07 07:43:40;;;;;;;2.50;2.30;;;18.40;53.80;;;;;;4971857;28;20193;-71
2023/12/07 07:46:08;;;;;;;2.35;2.15;;;18.30;53.60;;;;;;4974912;28;20417;-70
2023/12/07 07:48:34;;;;;;;2.35;2.15;;;18.40;53.70;;;;;;4971772;28;20173;-70
2023/12/07 07:51:00;;;;;;;2.20;2.00;;;18.40;53.70;;;;;;4961005;28;20654;-71
2023/12/07 07:53:25;;;;;;;2.08;1.88;;;18.30;54.30;;;;;;4972107;28;20181;-70
2023/12/07 07:55:52;;;;;;;1.95;1.75;;;18.40;53.70;;;;;;4958553;28;20194;-70
2023/12/07 07:58:18;;;;;;;2.40;2.20;;;18.30;53.60;;;;;;4971524;28;20188;-70
2023/12/07 08:00:46;;;;;;;2.22;2.03;;;18.30;53.50;;;;;;4972947;28;20268;-70
2023/12/07 08:03:12;;;;;;;2.47;2.28;;;18.40;53.70;;;;;;4984049;28;20213;-71
2023/12/07 08:05:38;;;;;;;2.03;1.92;;;18.40;53.60;;;;;;4972647;28;20221;-70
2023/12/07 08:08:04;;;;;;;2.65;2.45;;;18.40;53.70;;;;;;4987117;28;20193;-70
2023/12/07 08:10:29;;;;;;;2.65;2.45;;;18.40;53.60;;;;;;4971631;28;20241;-70
2023/12/07 08:12:55;;;;;;;2.67;2.47;;;18.30;53.50;;;;;;4986115;28;20197;-70
2023/12/07 08:15:21;;;;;;;2.58;2.38;;;18.30;53.40;;;;;;4974673;28;20186;-70
2023/12/07 08:17:47;;;;;;;2.95;2.22;;;18.40;53.60;;;;;;4981795;28;20237;-70
2023/12/07 08:20:14;;;;;;;2.40;2.20;;;18.40;53.60;;;;;;4971576;28;20264;-71
2023/12/07 08:22:43;;;;;;;1.90;1.80;;;18.30;53.40;;;;;;4971635;28;20274;-71
2023/12/07 08:25:11;;;;;;;2.10;2.00;;;18.40;53.40;;;;;;4955430;28;20248;-70
2023/12/07 08:27:38;;;;;;;2.00;1.90;;;18.30;53.40;;;;;;4963656;28;20182;-70
2023/12/07 08:30:05;;;;;;;1.90;1.80;;;18.30;53.30;;;;;;4971451;28;20246;-70
2023/12/07 08:32:31;;;;;;;2.45;2.25;;;18.30;53.30;;;;;;4969605;28;20194;-70
2023/12/07 08:34:57;;;;;;;2.17;2.00;;;18.30;53.30;;;;;;4971490;28;20196;-70
2023/12/07 08:37:22;;;;;;;2.20;2.00;;;18.30;53.30;;;;;;4978249;28;20182;-70
2023/12/07 08:39:48;;;;;;;2.17;1.80;;;18.30;53.40;;;;;;4952525;28;20202;-70
2023/12/07 08:42:14;;;;;;;2.40;2.20;;;18.30;53.30;;;;;;4971842;28;20174;-71
2023/12/07 08:44:41;;;;;;;2.40;2.20;;;18.30;53.30;;;;;;4971642;28;20249;-71
2023/12/07 08:47:06;;;;;;;2.20;1.92;;;18.30;53.30;;;;;;4972212;28;20217;-70
2023/12/07 08:49:32;;;;;;;2.30;2.10;;;18.30;53.10;;;;;;4969591;28;20214;-70
2023/12/07 08:51:58;;;;;;;2.17;2.00;;;18.30;53.30;;;;;;4971177;28;20224;-71
2023/12/07 08:54:24;;;;;;;2.25;2.10;;;18.30;53.20;;;;;;4971561;28;20186;-71
2023/12/07 08:56:51;;;;;;;1.90;1.80;;;18.30;53.20;;;;;;4971438;28;20189;-70
2023/12/07 08:59:16;;;;;;;2.00;1.90;;;18.30;53.30;;;;;;4975117;28;20204;-71
2023/12/07 09:01:42;;;;;;;1.88;1.77;;;18.30;53.30;;;;;;4971206;28;20186;-71
2023/12/07 09:04:08;;;;;;;2.25;2.00;;;18.30;53.20;;;;;;4971310;28;20201;-71
2023/12/07 09:06:36;;;;;;;1.98;1.88;;;18.40;53.40;;;;;;4991104;28;20233;-70
2023/12/07 09:09:04;;;;;;;2.13;1.95;;;18.30;53.10;;;;;;4967070;28;20223;-71
2023/12/07 09:11:30;;;;;;;2.22;2.03;;;18.30;53.10;;;;;;4977061;28;20185;-70
2023/12/07 09:13:57;;;;;;;2.20;2.00;;;18.30;53.20;;;;;;4974680;28;20217;-70
2023/12/07 09:16:23;;;;;;;2.63;2.42;;;18.30;53.20;;;;;;4974938;28;20190;-70
2023/12/07 09:18:49;;;;;;;2.35;2.20;;;18.40;53.30;;;;;;4978047;28;20762;-70
2023/12/07 09:21:15;;;;;;;2.40;2.20;;;18.40;53.20;;;;;;4976106;28;20189;-71
2023/12/07 09:23:40;;;;;;;2.30;2.10;;;18.30;53.10;;;;;;4974727;28;20190;-70
2023/12/07 09:26:07;;;;;;;2.42;2.22;;;18.40;53.20;;;;;;4977642;28;20213;-71
2023/12/07 09:28:33;;;;;;;2.60;2.38;;;18.40;53.10;;;;;;4980133;28;20193;-70
2023/12/07 09:30:59;;;;;;;2.97;2.35;;;18.40;53.20;;;;;;4975679;28;20205;-70
2023/12/07 09:33:25;;;;;;;2.33;1.70;;;18.30;53.10;;;;;;4990823;28;20189;-70
2023/12/07 09:35:51;;;;;;;2.42;2.22;;;18.40;53.20;;;;;;4958178;28;20272;-70
2023/12/07 09:38:17;;;;;;;2.75;2.42;;;18.40;53.20;;;;;;4978308;28;20189;-70
2023/12/07 09:40:45;;;;;;;2.20;2.00;;;18.40;53.20;;;;;;4975574;28;20192;-71
2023/12/07 09:43:12;;;;;;;2.17;1.98;;;18.40;53.20;;;;;;4989370;28;20198;-70
2023/12/07 09:45:37;;;;;;;2.63;2.30;;;18.40;53.20;;;;;;4994255;28;20209;-70
2023/12/07 09:48:04;;;;;;;2.25;2.10;;;18.40;53.10;;;;;;4956957;28;20578;-70
2023/12/07 09:50:30;;;;;;;2.65;2.30;;;18.40;53.20;;;;;;4981884;28;20309;-70
2023/12/07 09:52:58;;;;;;;3.15;2.08;;;18.40;53.20;;;;;;4968937;28;20197;-70
2023/12/07 09:55:24;;;;;;;2.10;2.00;;;18.40;53.20;;;;;;4990163;28;20190;-70
2023/12/07 09:57:51;;;;;;;2.90;2.40;;;18.40;53.20;;;;;;4987153;28;20186;-70
2023/12/07 10:00:17;;;;;;;2.13;1.98;;;18.40;53.10;;;;;;4957307;28;20240;-70
2023/12/07 10:02:46;;;;;;;2.75;2.30;;;18.40;53.20;;;;;;4990316;28;20185;-71
2023/12/07 10:05:16;;;;;;;2.20;2.00;;;18.40;53.20;;;;;;4967163;28;20190;-71
2023/12/07 10:07:46;;;;;;;2.88;2.50;;;18.40;53.20;;;;;;4974228;28;20184;-71
2023/12/07 10:10:12;;;;;;;2.03;1.85;;;18.40;53.20;;;;;;4957415;28;20213;-71
2023/12/07 10:12:53;;;;;;;2.55;2.35;;;18.40;53.20;;;;;;4989722;28;20173;-71
2023/12/07 10:15:21;;;;;;;2.00;1.90;;;18.40;53.70;;;;;;4968798;28;20198;-70
2023/12/07 10:17:56;;;;;;;2.50;2.30;;;18.40;53.20;;;;;;4985317;28;20224;-70
2023/12/07 10:20:31;;;;;;;1.90;1.80;;;18.40;53.10;;;;;;4967108;28;20213;-71
2023/12/07 10:23:05;;;;;;;2.22;2.13;;;18.40;53.10;;;;;;4957262;28;20259;-70
2023/12/07 10:25:42;;;;;;;2.17;2.00;;;18.40;53.20;;;;;;4987846;28;20220;-70
2023/12/07 10:28:11;;;;;;;1.90;1.80;;;18.40;53.20;;;;;;4974777;28;20244;-70
2023/12/07 10:30:41;;;;;;;2.28;2.08;;;18.40;53.20;;;;;;4973334;28;20226;-70
2023/12/07 10:33:07;;;;;;;2.08;1.98;;;18.50;53.20;;;;;;4964681;28;20197;-70
2023/12/07 10:35:38;;;;;;;2.10;1.95;;;18.50;53.20;;;;;;4975407;28;20181;-71
2023/12/07 10:38:04;;;;;;;1.85;1.75;;;18.50;53.20;;;;;;4978138;28;20252;-70
2023/12/07 10:40:30;;;;;;;2.05;1.95;;;18.50;53.20;;;;;;4973070;28;20206;-71
2023/12/07 10:42:58;;;;;;;2.35;2.15;;;18.50;53.20;;;;;;4973192;28;20198;-70
2023/12/07 10:45:27;;;;;;;2.55;2.35;;;18.50;53.20;;;;;;4989393;28;20218;-71
2023/12/07 10:48:02;;;;;;;2.58;2.38;;;18.50;53.20;;;;;;4969714;28;20281;-70
2023/12/07 10:50:32;;;;;;;2.53;2.30;;;18.50;53.20;;;;;;4973458;28;20655;-70
2023/12/07 10:53:08;;;;;;;2.67;2.47;;;18.50;53.20;;;;;;4968149;28;20194;-70
2023/12/07 10:55:47;;;;;;;3.28;2.33;;;18.50;53.20;;;;;;4987449;28;20592;-71
2023/12/07 10:58:16;;;;;;;2.40;2.20;;;18.50;53.30;;;;;;4970829;28;20569;-70
2023/12/07 11:00:46;;;;;;;2.58;2.38;;;18.50;53.20;;;;;;4976672;28;20216;-70
2023/12/07 11:03:20;;;;;;;2.67;2.47;;;18.50;53.20;;;;;;4976721;28;20189;-71
2023/12/07 11:05:48;;;;;;;2.55;2.35;;;18.50;53.30;;;;;;4972633;28;20759;-70
2023/12/07 11:08:44;;;;;;;3.55;2.70;;;18.60;53.40;;;;;;4978159;28;20194;-70
2023/12/07 11:11:25;;;;;;;2.53;2.33;;;18.50;53.30;;;;;;4971659;28;20226;-70
2023/12/07 11:14:07;;;;;;;2.97;2.67;;;18.50;53.40;;;;;;4967711;28;20185;-71
2023/12/07 11:16:37;;;;;;;3.20;2.90;;;18.50;53.40;;;;;;4974716;28;20190;-70
2023/12/07 11:19:06;;;;;;;2.60;2.40;;;18.50;53.30;;;;;;4988310;28;20220;-70
2023/12/07 11:21:32;;;;;;;3.22;2.90;;;18.50;53.30;;;;;;4992604;28;20702;-70
2023/12/07 11:24:03;;;;;;;3.38;3.08;;;18.60;53.40;;;;;;4978834;28;20217;-70
2023/12/07 11:26:29;;;;;;;2.90;2.60;;;18.60;53.50;;;;;;4969966;28;20206;-71
2023/12/07 11:28:56;;;;;;;3.03;2.35;;;18.50;53.40;;;;;;4991051;28;20212;-70
2023/12/07 11:31:22;;;;;;;2.63;2.42;;;18.60;53.50;;;;;;4956035;28;20586;-70
2023/12/07 11:33:48;;;;;;;3.08;2.78;;;18.60;53.50;;;;;;4957870;28;20178;-70
2023/12/07 11:36:14;;;;;;;3.83;2.95;;;18.60;53.50;;;;;;4956165;28;20189;-71
2023/12/07 11:39:18;;;;;;;2.78;2.50;;;18.60;53.50;;;;;;4993160;28;20242;-71
2023/12/07 11:41:45;;;;;;;2.92;2.53;;;18.60;53.50;;;;;;4988603;28;20188;-70
2023/12/07 11:44:12;;;;;;;2.92;2.72;;;18.60;53.50;;;;;;4973402;28;20248;-70
2023/12/07 11:46:38;;;;;;;2.53;2.33;;;18.60;53.60;;;;;;4990246;28;20259;-71
2023/12/07 11:49:05;;;;;;;2.28;2.08;;;18.60;53.60;;;;;;4973710;28;20216;-70
2023/12/07 11:51:31;;;;;;;2.55;2.40;;;18.60;53.60;;;;;;4970981;28;20196;-70
2023/12/07 11:53:57;;;;;;;2.40;2.20;;;18.60;53.60;;;;;;4976425;28;20276;-70
2023/12/07 11:56:22;;;;;;;2.42;2.22;;;18.60;53.60;;;;;;4972084;28;20189;-70
2023/12/07 11:58:49;;;;;;;2.60;2.40;;;18.60;53.60;;;;;;4979650;28;20582;-70
2023/12/07 12:01:17;;;;;;;2.67;2.20;;;18.60;53.60;;;;;;4973888;28;20649;-71
2023/12/07 12:03:43;;;;;;;2.60;2.40;;;18.60;53.60;;;;;;4971732;28;20552;-71
2023/12/07 12:06:10;;;;;;;2.45;2.25;;;18.60;53.60;;;;;;4980556;28;20216;-71
2023/12/07 12:08:36;;;;;;;2.15;2.05;;;18.60;53.70;;;;;;4972699;28;20264;-70
2023/12/07 12:11:02;;;;;;;2.88;2.67;;;18.60;53.60;;;;;;4978259;28;20189;-71
2023/12/07 12:13:35;;;;;;;2.33;2.13;;;18.60;53.60;;;;;;4986331;28;20196;-70
2023/12/07 12:16:01;;;;;;;2.28;2.08;;;18.60;53.60;;;;;;4968718;28;20198;-71
2023/12/07 12:18:28;;;;;;;2.05;1.95;;;18.60;53.60;;;;;;4970440;28;20247;-70
2023/12/07 12:20:54;;;;;;;2.30;2.10;;;18.60;53.60;;;;;;4984364;28;20189;-71
2023/12/07 12:23:21;;;;;;;2.30;2.10;;;18.60;53.60;;;;;;4965519;28;20186;-71
2023/12/07 12:25:48;;;;;;;2.60;2.05;;;18.60;53.60;;;;;;4958973;28;20217;-72
2023/12/07 12:28:21;;;;;;;2.17;2.08;;;18.60;53.60;;;;;;4973389;28;20282;-71
2023/12/07 12:30:48;;;;;;;2.50;2.30;;;18.60;53.60;;;;;;4971497;28;20202;-72
2023/12/07 12:33:14;;;;;;;2.40;2.20;;;18.60;53.60;;;;;;4955436;28;20296;-71
2023/12/07 12:35:41;;;;;;;2.22;2.00;;;18.60;53.70;;;;;;4971544;28;20724;-72
2023/12/07 12:38:11;;;;;;;1.85;1.75;;;18.60;53.70;;;;;;4982292;28;20189;-72
2023/12/07 12:40:37;;;;;;;2.50;2.20;;;18.60;53.60;;;;;;4971561;28;20220;-73
2023/12/07 12:43:04;;;;;;;2.47;2.28;;;18.60;53.60;;;;;;4973756;28;20186;-71
2023/12/07 12:45:32;;;;;;;1.90;1.80;;;18.60;53.60;;;;;;4978171;28;20209;-70
2023/12/07 12:47:58;;;;;;;2.03;1.90;;;18.60;53.70;;;;;;4952418;28;20182;-71